createdAt,value
2018-07-22T00:00:10.664Z,19.50
2018-07-22T00:02:39.486Z,19.50
2018-07-22T00:05:08.676Z,19.50
2018-07-22T00:07:37.809Z,19.50
2018-07-22T00:10:08.791Z,19.40
2018-07-22T00:12:37.426Z,19.40
2018-07-22T00:15:06.550Z,19.40
2018-07-22T00:17:35.090Z,19.30
2018-07-22T00:20:03.902Z,19.30
2018-07-22T00:22:32.320Z,19.40
2018-07-22T00:25:01.596Z,19.30
2018-07-22T00:27:30.004Z,19.30
2018-07-22T00:29:59.265Z,19.30
2018-07-22T00:32:27.768Z,19.20
2018-07-22T00:34:56.373Z,19.30
2018-07-22T00:37:24.909Z,19.30
2018-07-22T00:42:21.782Z,19.20
2018-07-22T00:44:50.262Z,19.20
2018-07-22T00:47:18.893Z,19.10
2018-07-22T00:49:47.339Z,19.10
2018-07-22T00:52:16.065Z,19.10
2018-07-22T00:54:44.748Z,19.00
2018-07-22T00:57:13.270Z,19.00
2018-07-22T00:59:41.762Z,19.10
2018-07-22T01:02:10.178Z,19.10
2018-07-22T01:04:38.994Z,19.10
2018-07-22T01:07:07.474Z,19.00
2018-07-22T01:09:35.893Z,19.00
2018-07-22T01:12:05.231Z,19.00
2018-07-22T01:14:34.314Z,19.00
2018-07-22T01:17:02.794Z,19.00
2018-07-22T01:19:31.227Z,19.00
2018-07-22T01:21:59.766Z,18.90
2018-07-22T01:24:28.154Z,19.00
2018-07-22T01:26:57.159Z,18.90
2018-07-22T01:29:25.618Z,18.80
2018-07-22T01:31:54.933Z,18.80
2018-07-22T01:34:23.699Z,18.80
2018-07-22T01:36:52.325Z,18.80
2018-07-22T01:39:20.942Z,18.80
2018-07-22T01:41:49.466Z,18.80
2018-07-22T01:44:17.997Z,18.80
2018-07-22T01:49:15.455Z,18.80
2018-07-22T01:51:43.886Z,18.70
2018-07-22T01:54:12.300Z,18.70
2018-07-22T01:56:40.888Z,18.60
2018-07-22T01:59:09.518Z,18.60
2018-07-22T02:01:37.971Z,18.50
2018-07-22T02:04:06.574Z,18.50
2018-07-22T02:06:36.168Z,18.40
2018-07-22T02:09:07.357Z,18.40
2018-07-22T02:11:35.956Z,18.40
2018-07-22T02:14:04.826Z,18.50
2018-07-22T02:16:33.445Z,18.50
2018-07-22T02:19:02.207Z,18.60
2018-07-22T02:23:59.081Z,18.50
2018-07-22T02:26:27.616Z,18.60
2018-07-22T02:28:56.150Z,18.70
2018-07-22T02:31:25.422Z,18.80
2018-07-22T02:33:53.831Z,18.90
2018-07-22T02:36:22.230Z,18.90
2018-07-22T02:38:51.341Z,19.00
2018-07-22T02:41:20.333Z,18.90
2018-07-22T02:43:49.318Z,18.90
2018-07-22T02:46:17.843Z,18.90
2018-07-22T02:48:46.751Z,18.90
2018-07-22T02:51:15.858Z,19.00
2018-07-22T02:53:44.402Z,18.90
2018-07-22T02:56:12.874Z,18.90
2018-07-22T02:58:41.376Z,18.90
2018-07-22T03:01:09.898Z,18.80
2018-07-22T03:03:38.397Z,18.70
2018-07-22T03:06:06.926Z,18.60
2018-07-22T03:08:35.853Z,18.60
2018-07-22T03:11:05.262Z,18.60
2018-07-22T03:13:34.008Z,18.60
2018-07-22T03:16:02.606Z,18.60
2018-07-22T03:18:31.954Z,18.70
2018-07-22T03:23:29.777Z,18.60
2018-07-22T03:25:58.199Z,18.60
2018-07-22T03:28:26.697Z,18.70
2018-07-22T03:30:55.136Z,18.80
2018-07-22T03:33:24.463Z,18.90
2018-07-22T03:35:52.851Z,18.90
2018-07-22T03:38:21.921Z,19.00
2018-07-22T03:40:50.702Z,19.00
2018-07-22T03:43:19.124Z,19.00
2018-07-22T03:45:47.543Z,19.10
2018-07-22T03:48:16.007Z,19.10
2018-07-22T03:50:44.561Z,19.10
2018-07-22T03:53:13.221Z,19.10
2018-07-22T03:55:41.752Z,19.10
2018-07-22T03:58:10.202Z,19.10
2018-07-22T04:00:38.700Z,19.10
2018-07-22T04:03:07.494Z,19.10
2018-07-22T04:05:36.226Z,19.10
2018-07-22T04:08:05.230Z,19.10
2018-07-22T04:10:33.832Z,19.10
2018-07-22T04:13:02.284Z,19.10
2018-07-22T04:15:30.862Z,19.00
2018-07-22T04:17:59.432Z,19.10
2018-07-22T04:20:27.821Z,19.10
2018-07-22T04:22:57.037Z,19.20
2018-07-22T04:25:25.486Z,19.20
2018-07-22T04:27:54.583Z,19.20
2018-07-22T04:30:22.969Z,19.20
2018-07-22T04:32:52.065Z,19.20
2018-07-22T04:35:20.459Z,19.20
2018-07-22T04:37:49.023Z,19.20
2018-07-22T04:40:17.541Z,19.20
2018-07-22T04:42:45.962Z,19.20
2018-07-22T04:45:14.411Z,19.20
2018-07-22T04:47:42.905Z,19.20
2018-07-22T04:50:11.361Z,19.20
2018-07-22T04:52:39.911Z,19.20
2018-07-22T04:55:08.505Z,19.20
2018-07-22T04:57:36.993Z,19.10
2018-07-22T05:00:06.149Z,19.00
2018-07-22T05:02:34.714Z,18.90
2018-07-22T05:05:03.256Z,18.90
2018-07-22T05:07:32.347Z,18.80
2018-07-22T05:10:00.734Z,18.80
2018-07-22T05:12:29.166Z,18.90
2018-07-22T05:14:57.617Z,19.10
2018-07-22T05:17:26.044Z,19.20
2018-07-22T05:19:54.466Z,19.30
2018-07-22T05:22:23.015Z,19.50
2018-07-22T05:24:51.565Z,19.50
2018-07-22T05:29:48.194Z,19.70
2018-07-22T05:32:16.702Z,19.70
2018-07-22T05:34:46.165Z,19.80
2018-07-22T05:37:14.661Z,19.90
2018-07-22T05:39:43.338Z,19.90
2018-07-22T05:42:11.931Z,20.00
2018-07-22T05:44:40.330Z,19.80
2018-07-22T05:47:08.814Z,19.70
2018-07-22T05:49:37.300Z,19.80
2018-07-22T05:52:06.265Z,19.90
2018-07-22T05:54:34.807Z,20.00
2018-07-22T05:57:03.366Z,20.10
2018-07-22T05:59:31.832Z,20.30
2018-07-22T06:02:00.377Z,20.30
2018-07-22T06:04:29.390Z,20.50
2018-07-22T06:06:57.929Z,20.60
2018-07-22T06:09:26.387Z,20.60
2018-07-22T06:11:54.919Z,20.70
2018-07-22T06:16:51.588Z,20.60
2018-07-22T06:19:20.213Z,20.50
2018-07-22T06:21:48.726Z,20.30
2018-07-22T06:24:17.255Z,20.40
2018-07-22T06:26:46.867Z,20.40
2018-07-22T06:29:15.544Z,20.50
2018-07-22T06:31:43.974Z,20.50
2018-07-22T06:34:12.427Z,20.50
2018-07-22T06:36:41.560Z,20.40
2018-07-22T06:39:12.073Z,20.50
2018-07-22T06:41:41.305Z,20.60
2018-07-22T06:44:10.074Z,20.50
2018-07-22T06:46:38.677Z,20.60
2018-07-22T06:49:08.028Z,20.60
2018-07-22T06:51:36.519Z,20.50
2018-07-22T06:54:05.063Z,20.60
2018-07-22T06:56:34.905Z,20.40
2018-07-22T06:59:03.482Z,20.20
2018-07-22T07:01:32.543Z,20.20
2018-07-22T07:04:01.153Z,20.20
2018-07-22T07:06:29.636Z,20.20
2018-07-22T07:08:58.123Z,20.20
2018-07-22T07:11:26.528Z,20.50
2018-07-22T07:13:55.034Z,20.70
2018-07-22T07:16:23.509Z,20.90
2018-07-22T07:18:51.954Z,21.10
2018-07-22T07:21:20.935Z,21.30
2018-07-22T07:23:49.453Z,21.50
2018-07-22T07:26:18.609Z,21.50
2018-07-22T07:28:47.182Z,21.50
2018-07-22T07:31:15.589Z,21.50
2018-07-22T07:33:44.049Z,21.70
2018-07-22T07:36:12.497Z,21.60
2018-07-22T07:38:41.016Z,21.60
2018-07-22T07:41:09.586Z,21.70
2018-07-22T07:46:07.431Z,21.20
2018-07-22T07:48:35.869Z,21.10
2018-07-22T07:51:04.391Z,21.30
2018-07-22T07:53:32.974Z,21.50
2018-07-22T07:56:02.273Z,21.70
2018-07-22T07:58:30.747Z,22.00
2018-07-22T08:00:59.384Z,22.10
2018-07-22T08:03:28.294Z,21.80
2018-07-22T08:05:57.154Z,21.80
2018-07-22T08:08:25.589Z,21.90
2018-07-22T08:10:54.207Z,22.10
2018-07-22T08:13:22.805Z,22.20
2018-07-22T08:15:51.317Z,22.40
2018-07-22T08:18:19.722Z,22.60
2018-07-22T08:20:48.610Z,22.60
2018-07-22T08:23:17.092Z,22.40
2018-07-22T08:29:29.808Z,22.50
2018-07-22T08:31:58.621Z,22.10
2018-07-22T08:34:27.874Z,21.80
2018-07-22T08:39:25.650Z,22.30
2018-07-22T08:41:54.776Z,22.20
2018-07-22T08:44:24.166Z,22.10
2018-07-22T08:46:53.359Z,22.00
2018-07-22T08:49:23.445Z,22.60
2018-07-22T08:51:52.417Z,22.70
2018-07-22T08:54:21.000Z,23.20
2018-07-22T08:56:49.634Z,23.70
2018-07-22T08:59:18.565Z,23.80
2018-07-22T09:01:47.081Z,24.20
2018-07-22T09:04:16.550Z,24.10
2018-07-22T09:06:45.966Z,24.30
2018-07-22T09:09:15.069Z,24.10
2018-07-22T09:11:43.569Z,24.10
2018-07-22T09:14:12.224Z,23.90
2018-07-22T09:16:40.979Z,24.20
2018-07-22T09:19:10.168Z,24.30
2018-07-22T09:24:29.128Z,24.40
2018-07-22T09:26:57.780Z,24.60
2018-07-22T09:29:26.432Z,25.00
2018-07-22T09:31:54.939Z,25.40
2018-07-22T09:34:23.534Z,25.90
2018-07-22T09:36:52.165Z,26.40
2018-07-22T09:39:20.616Z,25.70
2018-07-22T09:41:49.153Z,25.40
2018-07-22T09:44:18.170Z,24.80
2018-07-22T09:46:47.317Z,25.20
2018-07-22T09:49:15.990Z,25.80
2018-07-22T09:51:44.638Z,26.10
2018-07-22T09:54:13.184Z,26.50
2018-07-22T09:56:41.729Z,26.30
2018-07-22T09:59:10.304Z,26.00
2018-07-22T10:01:38.770Z,26.40
2018-07-22T10:04:07.750Z,26.30
2018-07-22T10:06:36.238Z,26.50
2018-07-22T10:09:07.730Z,26.60
2018-07-22T10:11:37.024Z,26.20
2018-07-22T10:14:05.688Z,25.80
2018-07-22T10:16:34.099Z,25.60
2018-07-22T10:19:02.558Z,26.10
2018-07-22T10:21:31.219Z,26.50
2018-07-22T10:23:59.716Z,26.30
2018-07-22T10:26:28.252Z,25.80
2018-07-22T10:31:24.810Z,26.20
2018-07-22T10:33:53.534Z,26.40
2018-07-22T10:36:22.040Z,26.30
2018-07-22T10:38:50.451Z,26.10
2018-07-22T10:41:19.144Z,26.20
2018-07-22T10:43:47.576Z,26.20
2018-07-22T10:46:16.022Z,26.00
2018-07-22T10:48:44.485Z,25.70
2018-07-22T10:51:13.150Z,25.40
2018-07-22T10:56:09.962Z,25.10
2018-07-22T10:58:38.452Z,25.10
2018-07-22T11:01:07.026Z,25.10
2018-07-22T11:03:36.381Z,25.40
2018-07-22T11:06:04.869Z,25.00
2018-07-22T11:08:33.419Z,24.80
2018-07-22T11:11:02.085Z,24.70
2018-07-22T11:13:30.619Z,24.70
2018-07-22T11:15:59.693Z,24.90
2018-07-22T11:18:28.910Z,25.10
2018-07-22T11:20:57.430Z,25.00
2018-07-22T11:23:25.910Z,25.00
2018-07-22T11:25:54.411Z,25.30
2018-07-22T11:28:22.922Z,25.80
2018-07-22T11:30:51.450Z,25.20
2018-07-22T11:33:19.905Z,25.40
2018-07-22T11:35:48.469Z,24.90
2018-07-22T11:38:17.791Z,24.70
2018-07-22T11:40:47.042Z,24.60
2018-07-22T11:43:15.713Z,24.50
2018-07-22T11:45:44.321Z,24.60
2018-07-22T11:48:12.985Z,24.40
2018-07-22T11:50:41.616Z,24.80
2018-07-22T11:53:10.045Z,24.90
2018-07-22T11:55:38.671Z,24.80
2018-07-22T11:58:07.417Z,24.50
2018-07-22T12:00:36.097Z,24.40
2018-07-22T12:03:05.053Z,24.70
2018-07-22T12:10:31.182Z,24.90
2018-07-22T12:12:59.787Z,25.00
2018-07-22T12:15:28.358Z,25.00
2018-07-22T12:17:56.803Z,24.70
2018-07-22T12:20:25.257Z,24.50
2018-07-22T12:22:53.799Z,24.10
2018-07-22T12:25:22.433Z,23.90
2018-07-22T12:27:50.979Z,23.70
2018-07-22T12:30:19.439Z,23.00
2018-07-22T12:32:48.922Z,22.40
2018-07-22T12:35:17.608Z,22.10
2018-07-22T12:37:46.614Z,22.10
2018-07-22T12:40:15.159Z,22.10
2018-07-22T12:42:43.766Z,22.30
2018-07-22T12:45:12.290Z,22.50
2018-07-22T12:47:40.731Z,22.90
2018-07-22T12:50:09.386Z,23.00
2018-07-22T12:52:38.707Z,23.10
2018-07-22T12:55:07.240Z,22.80
2018-07-22T12:57:35.801Z,22.60
2018-07-22T13:00:04.605Z,22.90
2018-07-22T13:02:33.852Z,22.80
2018-07-22T13:05:02.947Z,22.70
2018-07-22T13:07:31.353Z,22.60
2018-07-22T13:09:59.868Z,22.70
2018-07-22T13:12:28.830Z,22.50
2018-07-22T13:14:57.345Z,22.60
2018-07-22T13:17:25.871Z,22.60
2018-07-22T13:19:54.402Z,22.60
2018-07-22T13:22:22.881Z,22.40
2018-07-22T13:24:51.399Z,22.10
2018-07-22T13:27:19.989Z,21.80
2018-07-22T13:29:53.343Z,21.40
2018-07-22T13:32:22.601Z,20.80
2018-07-22T13:34:51.178Z,20.60
2018-07-22T13:37:19.851Z,20.40
2018-07-22T13:39:49.029Z,20.20
2018-07-22T13:44:46.195Z,20.10
2018-07-22T13:47:14.788Z,19.90
2018-07-22T13:49:43.293Z,19.80
2018-07-22T13:52:11.781Z,19.60
2018-07-22T13:54:40.398Z,19.40
2018-07-22T13:57:09.306Z,19.40
2018-07-22T13:59:37.824Z,19.30
2018-07-22T14:02:07.298Z,19.30
2018-07-22T14:04:36.381Z,19.50
2018-07-22T14:07:04.978Z,19.50
2018-07-22T14:09:33.420Z,19.60
2018-07-22T14:12:01.980Z,19.80
2018-07-22T14:14:30.502Z,19.80
2018-07-22T14:16:59.079Z,20.00
2018-07-22T14:19:27.604Z,20.00
2018-07-22T14:21:56.086Z,20.20
2018-07-22T14:24:24.652Z,20.30
2018-07-22T14:26:53.127Z,20.40
2018-07-22T14:29:21.703Z,20.50
2018-07-22T14:31:50.264Z,20.60
2018-07-22T14:34:18.759Z,20.60
2018-07-22T14:36:47.206Z,20.60
2018-07-22T14:39:15.691Z,20.70
2018-07-22T14:41:44.105Z,20.60
2018-07-22T14:44:12.596Z,20.70
2018-07-22T14:46:41.067Z,20.70
2018-07-22T14:49:09.597Z,20.80
2018-07-22T14:51:38.083Z,20.80
2018-07-22T14:54:06.686Z,20.90
2018-07-22T14:56:35.191Z,20.90
2018-07-22T14:59:03.657Z,21.00
2018-07-22T15:01:32.263Z,20.90
2018-07-22T15:04:00.729Z,21.00
2018-07-22T15:06:29.256Z,21.00
2018-07-22T15:08:58.578Z,20.90
2018-07-22T15:11:27.160Z,20.80
2018-07-22T15:13:56.164Z,20.90
2018-07-22T15:16:25.344Z,20.90
2018-07-22T15:18:54.017Z,20.90
2018-07-22T15:21:22.750Z,20.90
2018-07-22T15:23:51.182Z,20.80
2018-07-22T15:28:47.917Z,20.90
2018-07-22T15:31:16.939Z,21.00
2018-07-22T15:33:45.460Z,21.00
2018-07-22T15:36:14.000Z,21.00
2018-07-22T15:38:42.472Z,20.90
2018-07-22T15:41:11.036Z,20.90
2018-07-22T15:43:39.531Z,21.10
2018-07-22T15:46:08.116Z,21.00
2018-07-22T15:48:36.773Z,21.00
2018-07-22T15:51:05.630Z,21.00
2018-07-22T15:53:34.148Z,20.90
2018-07-22T15:56:02.703Z,20.90
2018-07-22T15:58:31.283Z,20.90
2018-07-22T16:00:59.746Z,20.90
2018-07-22T16:03:28.481Z,20.90
2018-07-22T16:05:57.012Z,21.00
2018-07-22T16:08:25.577Z,21.10
2018-07-22T16:10:54.123Z,21.20
2018-07-22T16:13:22.769Z,21.30
2018-07-22T16:15:51.286Z,21.30
2018-07-22T16:18:20.224Z,21.40
2018-07-22T16:20:48.778Z,21.40
2018-07-22T16:23:17.395Z,21.40
2018-07-22T16:25:45.953Z,21.40
2018-07-22T16:30:42.842Z,21.50
2018-07-22T16:35:39.873Z,21.60
2018-07-22T16:38:08.445Z,21.70
2018-07-22T16:40:37.094Z,21.70
2018-07-22T16:43:33.266Z,21.70
2018-07-22T16:47:05.196Z,21.80
2018-07-22T16:49:34.506Z,21.70
2018-07-22T16:52:03.123Z,21.70
2018-07-22T16:54:32.047Z,21.70
2018-07-22T16:59:29.447Z,21.70
2018-07-22T17:01:58.209Z,21.60
2018-07-22T17:04:27.224Z,21.60
2018-07-22T17:06:55.964Z,21.60
2018-07-22T17:09:24.704Z,21.70
2018-07-22T17:11:53.954Z,21.60
2018-07-22T17:14:23.374Z,21.50
2018-07-22T17:16:51.953Z,21.40
2018-07-22T17:21:49.397Z,21.40
2018-07-22T17:24:17.994Z,21.20
2018-07-22T17:26:47.246Z,21.20
2018-07-22T17:29:16.447Z,21.20
2018-07-22T17:31:44.978Z,21.20
2018-07-22T17:34:13.582Z,21.20
2018-07-22T17:36:42.552Z,21.10
2018-07-22T17:39:11.612Z,20.90
2018-07-22T17:41:40.421Z,20.90
2018-07-22T17:44:09.696Z,20.90
2018-07-22T17:46:38.442Z,20.90
2018-07-22T17:49:07.328Z,20.90
2018-07-22T17:51:36.618Z,20.90
2018-07-22T17:54:05.670Z,20.80
2018-07-22T17:56:34.148Z,20.80
2018-07-22T17:59:02.953Z,20.80
2018-07-22T18:01:31.701Z,20.80
2018-07-22T18:04:00.255Z,20.70
2018-07-22T18:06:28.975Z,20.80
2018-07-22T18:08:57.689Z,20.80
2018-07-22T18:11:26.421Z,20.80
2018-07-22T18:13:55.667Z,20.70
2018-07-22T18:16:24.487Z,20.70
2018-07-22T18:18:53.260Z,20.80
2018-07-22T18:21:22.600Z,20.90
2018-07-22T18:23:51.551Z,20.90
2018-07-22T18:26:20.753Z,20.80
2018-07-22T18:28:49.333Z,20.80
2018-07-22T18:31:17.824Z,20.70
2018-07-22T18:33:46.370Z,20.60
2018-07-22T18:36:14.911Z,20.60
2018-07-22T18:38:43.648Z,20.50
2018-07-22T18:41:12.283Z,20.40
2018-07-22T18:43:41.175Z,20.30
2018-07-22T18:46:09.737Z,20.20
2018-07-22T18:48:39.277Z,20.10
2018-07-22T18:51:08.256Z,20.10
2018-07-22T18:53:36.948Z,20.10
2018-07-22T18:56:05.927Z,20.20
2018-07-22T18:58:34.916Z,20.30
2018-07-22T19:01:03.892Z,20.30
2018-07-22T19:03:32.751Z,20.30
2018-07-22T19:06:03.073Z,20.30
2018-07-22T19:08:31.935Z,20.30
2018-07-22T19:11:00.749Z,20.30
2018-07-22T19:13:30.559Z,20.30
2018-07-22T19:15:59.441Z,20.30
2018-07-22T19:18:28.272Z,20.20
2018-07-22T19:20:57.141Z,20.20
2018-07-22T19:23:26.069Z,20.20
2018-07-22T19:28:23.597Z,20.10
2018-07-22T19:30:53.165Z,20.20
2018-07-22T19:33:22.243Z,20.20
2018-07-22T19:35:51.160Z,20.20
2018-07-22T19:38:20.834Z,20.20
2018-07-22T19:40:49.765Z,20.20
2018-07-22T19:43:18.644Z,20.20
2018-07-22T19:45:47.771Z,20.20
2018-07-22T19:48:17.542Z,20.20
2018-07-22T19:53:14.963Z,20.10
2018-07-22T19:55:43.809Z,20.10
2018-07-22T19:58:12.643Z,20.10
2018-07-22T20:00:41.653Z,20.10
2018-07-22T20:03:10.545Z,20.10
2018-07-22T20:05:39.334Z,20.10
2018-07-22T20:08:08.433Z,20.10
2018-07-22T20:10:37.315Z,20.10
2018-07-22T20:13:06.157Z,20.10
2018-07-22T20:15:35.029Z,20.10
2018-07-22T20:20:32.481Z,20.10
2018-07-22T20:23:01.314Z,20.10
2018-07-22T20:25:30.112Z,20.10
2018-07-22T20:27:59.218Z,20.10
2018-07-22T20:30:27.725Z,20.10
2018-07-22T20:32:56.411Z,20.00
2018-07-22T20:35:25.487Z,20.00
2018-07-22T20:37:54.316Z,20.00
2018-07-22T20:40:23.808Z,20.00
2018-07-22T20:42:52.619Z,20.00
2018-07-22T20:45:21.798Z,20.00
2018-07-22T20:47:50.315Z,20.00
2018-07-22T20:50:18.788Z,19.90
2018-07-22T20:52:47.325Z,19.90
2018-07-22T20:55:15.787Z,19.90
2018-07-22T20:57:44.310Z,19.80
2018-07-22T21:00:13.273Z,19.80
2018-07-22T21:02:42.234Z,19.80
2018-07-22T21:05:10.753Z,19.80
2018-07-22T21:07:39.377Z,19.70
2018-07-22T21:10:07.980Z,19.70
2018-07-22T21:12:48.730Z,19.70
2018-07-22T21:15:27.834Z,19.80
2018-07-22T21:17:56.347Z,19.80
2018-07-22T21:20:24.957Z,19.80
2018-07-22T21:22:53.471Z,19.80
2018-07-22T21:25:22.015Z,19.70
2018-07-22T21:27:56.134Z,19.70
2018-07-22T21:32:54.746Z,19.70
2018-07-22T21:35:24.816Z,19.70
2018-07-22T21:37:53.460Z,19.70
2018-07-22T21:40:22.955Z,19.70
2018-07-22T21:42:52.208Z,19.60
2018-07-22T21:45:22.277Z,19.60
2018-07-22T21:50:27.077Z,19.60
2018-07-22T21:52:56.438Z,19.60
2018-07-22T21:55:26.622Z,19.60
2018-07-22T21:57:55.187Z,19.40
2018-07-22T22:00:32.328Z,19.20
2018-07-22T22:03:03.171Z,19.20
2018-07-22T22:05:31.775Z,19.20
2018-07-22T22:08:00.335Z,19.30
2018-07-22T22:10:28.871Z,19.30
2018-07-22T22:12:57.936Z,19.30
2018-07-22T22:15:31.487Z,19.40
2018-07-22T22:18:03.132Z,19.30
2018-07-22T22:23:00.450Z,19.40
2018-07-22T22:25:29.136Z,19.40
2018-07-22T22:27:57.787Z,19.40
2018-07-22T22:30:27.114Z,19.40
2018-07-22T22:32:58.314Z,19.40
2018-07-22T22:35:27.508Z,19.40
2018-07-22T22:37:56.446Z,19.40
2018-07-22T22:40:25.000Z,19.20
2018-07-22T22:42:54.058Z,19.10
2018-07-22T22:45:22.557Z,18.90
2018-07-22T22:47:51.148Z,19.00
2018-07-22T22:50:19.775Z,19.10
2018-07-22T22:52:49.114Z,19.10
2018-07-22T22:55:18.234Z,19.10
2018-07-22T22:57:58.125Z,19.20
2018-07-22T23:00:26.789Z,19.10
2018-07-22T23:02:55.272Z,19.10
2018-07-22T23:05:23.842Z,19.10
2018-07-22T23:07:52.381Z,18.90
2018-07-22T23:10:20.915Z,18.90
2018-07-22T23:12:49.461Z,18.80
2018-07-22T23:15:18.035Z,18.80
2018-07-22T23:17:46.525Z,18.80
2018-07-22T23:20:15.042Z,18.90
2018-07-22T23:22:43.574Z,19.00
2018-07-22T23:25:12.112Z,19.00
2018-07-22T23:27:40.583Z,19.00
2018-07-22T23:30:09.191Z,18.90
2018-07-22T23:32:37.830Z,18.90
2018-07-22T23:35:06.695Z,19.00
2018-07-22T23:37:35.334Z,18.90
2018-07-22T23:40:04.119Z,19.00
2018-07-22T23:42:32.681Z,19.00
2018-07-22T23:45:01.199Z,19.00
2018-07-22T23:47:29.817Z,19.00
2018-07-22T23:49:58.409Z,19.00
2018-07-22T23:52:26.956Z,19.00
2018-07-22T23:54:55.479Z,19.00
2018-07-22T23:57:24.154Z,19.00
2018-07-22T23:59:52.639Z,19.00
